createdAt,value
2022-12-11T00:00:23.731Z,95242.09
2022-12-11T00:02:50.333Z,95243.16
2022-12-11T00:05:16.862Z,95226.94
2022-12-11T00:07:43.495Z,95229.28
2022-12-11T00:10:09.948Z,95214.44
2022-12-11T00:12:36.371Z,95236.69
2022-12-11T00:15:02.829Z,95222.56
2022-12-11T00:17:29.257Z,95225.16
2022-12-11T00:19:55.670Z,95230.09
2022-12-11T00:22:22.107Z,95228.03
2022-12-11T00:24:48.539Z,95219.28
2022-12-11T00:27:15.022Z,95223.63
2022-12-11T00:29:41.468Z,95216.09
2022-12-11T00:32:07.937Z,95216.09
2022-12-11T00:34:34.507Z,95192.59
2022-12-11T00:37:00.998Z,95192.38
2022-12-11T00:39:27.430Z,95187.47
2022-12-11T00:41:53.894Z,95195.28
2022-12-11T00:44:20.434Z,95237.84
2022-12-11T00:46:46.874Z,95250.66
2022-12-11T00:49:13.327Z,95265.31
2022-12-11T00:51:39.735Z,95266.78
2022-12-11T00:54:06.713Z,95286.94
2022-12-11T00:56:33.174Z,95298.94
2022-12-11T00:58:59.755Z,95303.53
2022-12-11T01:01:26.340Z,95321.22
2022-12-11T01:03:53.131Z,95315.09
2022-12-11T01:06:21.184Z,95307.72
2022-12-11T01:08:48.207Z,95304.59
2022-12-11T01:11:15.772Z,95307.63
2022-12-11T01:13:42.385Z,95340.03
2022-12-11T01:16:13.566Z,95347.56
2022-12-11T01:18:40.158Z,95334.03
2022-12-11T01:21:10.937Z,95336.28
2022-12-11T01:23:37.849Z,95308.56
2022-12-11T01:26:05.226Z,95297.28
2022-12-11T01:28:31.650Z,95284.94
2022-12-11T01:30:58.140Z,95282.78
2022-12-11T01:33:24.547Z,95270.41
2022-12-11T01:35:50.931Z,95276.06
2022-12-11T01:38:17.331Z,95264.53
2022-12-11T01:40:54.004Z,95252.53
2022-12-11T01:43:20.451Z,95253.09
2022-12-11T01:45:48.174Z,95262.16
2022-12-11T01:48:18.541Z,95289.66
2022-12-11T01:50:56.309Z,95282.88
2022-12-11T01:53:25.274Z,95265.84
2022-12-11T01:55:53.461Z,95260.44
2022-12-11T01:58:20.738Z,95276.00
2022-12-11T02:00:47.154Z,95285.13
2022-12-11T02:03:13.900Z,95282.94
2022-12-11T02:05:40.355Z,95298.28
2022-12-11T02:08:07.679Z,95301.59
2022-12-11T02:10:54.362Z,95301.81
2022-12-11T02:13:30.853Z,95308.31
2022-12-11T02:16:13.500Z,95313.16
2022-12-11T02:18:47.515Z,95322.19
2022-12-11T02:21:20.863Z,95310.28
2022-12-11T02:23:47.225Z,95310.00
2022-12-11T02:26:36.789Z,95295.94
2022-12-11T02:29:07.393Z,95287.06
2022-12-11T02:31:42.870Z,95291.94
2022-12-11T02:34:15.368Z,95292.28
2022-12-11T02:36:44.015Z,95289.75
2022-12-11T02:39:13.033Z,95293.84
2022-12-11T02:41:43.062Z,95285.44
2022-12-11T02:44:11.208Z,95280.66
2022-12-11T02:46:37.989Z,95287.63
2022-12-11T02:49:06.648Z,95292.03
2022-12-11T02:51:36.348Z,95300.25
2022-12-11T02:54:05.270Z,95286.66
2022-12-11T02:56:38.710Z,95288.97
2022-12-11T02:59:08.575Z,95305.88
2022-12-11T03:01:35.069Z,95301.25
2022-12-11T03:04:01.649Z,95308.16
2022-12-11T03:06:32.765Z,95317.38
2022-12-11T03:08:59.175Z,95314.50
2022-12-11T03:11:25.630Z,95303.97
2022-12-11T03:13:52.952Z,95302.91
2022-12-11T03:16:39.754Z,95314.66
2022-12-11T03:19:15.276Z,95325.47
2022-12-11T03:21:50.837Z,95330.09
2022-12-11T03:24:23.167Z,95337.25
2022-12-11T03:26:56.863Z,95332.19
2022-12-11T03:29:26.113Z,95333.69
2022-12-11T03:32:03.807Z,95339.69
2022-12-11T03:34:53.485Z,95351.75
2022-12-11T03:37:25.109Z,95357.13
2022-12-11T03:39:54.133Z,95348.16
2022-12-11T03:42:21.752Z,95346.59
2022-12-11T03:44:49.466Z,95349.19
2022-12-11T03:47:18.762Z,95349.75
2022-12-11T03:49:45.895Z,95337.84
2022-12-11T03:52:13.024Z,95337.25
2022-12-11T03:54:40.161Z,95327.78
2022-12-11T03:57:08.212Z,95324.53
2022-12-11T03:59:34.611Z,95330.38
2022-12-11T04:02:01.238Z,95326.53
2022-12-11T04:04:27.816Z,95309.56
2022-12-11T04:06:54.213Z,95318.75
2022-12-11T04:09:20.653Z,95309.25
2022-12-11T04:11:47.206Z,95301.03
2022-12-11T04:14:32.900Z,95300.31
2022-12-11T04:17:00.220Z,95303.38
2022-12-11T04:19:45.359Z,95299.81
2022-12-11T04:22:30.729Z,95302.34
2022-12-11T04:24:57.203Z,95296.72
2022-12-11T04:27:42.276Z,95304.41
2022-12-11T04:30:10.443Z,95318.03
2022-12-11T04:32:37.375Z,95307.50
2022-12-11T04:35:04.224Z,95308.78
2022-12-11T04:37:30.674Z,95317.22
2022-12-11T04:39:57.104Z,95325.47
2022-12-11T04:42:23.537Z,95318.03
2022-12-11T04:44:49.925Z,95322.72
2022-12-11T04:47:16.365Z,95317.59
2022-12-11T04:49:42.843Z,95324.53
2022-12-11T04:52:09.484Z,95318.41
2022-12-11T04:54:35.903Z,95330.94
2022-12-11T04:57:02.330Z,95335.31
2022-12-11T04:59:28.754Z,95330.41
2022-12-11T05:01:55.260Z,95338.88
2022-12-11T05:04:21.726Z,95333.22
2022-12-11T05:06:49.190Z,95345.47
2022-12-11T05:09:15.608Z,95352.13
2022-12-11T05:11:42.216Z,95345.88
2022-12-11T05:14:08.778Z,95348.69
2022-12-11T05:16:35.144Z,95342.25
2022-12-11T05:19:01.842Z,95343.78
2022-12-11T05:21:34.617Z,95360.22
2022-12-11T05:24:01.484Z,95347.59
2022-12-11T05:26:27.891Z,95348.28
2022-12-11T05:28:55.017Z,95346.25
2022-12-11T05:31:26.110Z,95351.09
2022-12-11T05:33:53.148Z,95342.63
2022-12-11T05:36:21.956Z,95337.72
2022-12-11T05:38:49.035Z,95340.28
2022-12-11T05:41:16.926Z,95346.69
2022-12-11T05:43:43.327Z,95338.50
2022-12-11T05:46:09.775Z,95344.69
2022-12-11T05:48:37.078Z,95347.50
2022-12-11T05:51:03.709Z,95346.72
2022-12-11T05:53:30.157Z,95339.44
2022-12-11T05:56:02.344Z,95343.56
2022-12-11T05:58:29.001Z,95337.94
2022-12-11T06:00:55.437Z,95343.75
2022-12-11T06:03:22.087Z,95343.97
2022-12-11T06:05:49.373Z,95339.03
2022-12-11T06:08:15.845Z,95327.00
2022-12-11T06:10:48.992Z,95333.13
2022-12-11T06:13:15.831Z,95328.53
2022-12-11T06:15:42.618Z,95339.00
2022-12-11T06:18:09.224Z,95344.41
2022-12-11T06:20:35.795Z,95357.66
2022-12-11T06:23:02.812Z,95355.53
2022-12-11T06:25:29.932Z,95354.28
2022-12-11T06:27:56.430Z,95354.81
2022-12-11T06:30:23.002Z,95355.41
2022-12-11T06:33:04.880Z,95360.16
2022-12-11T06:35:31.323Z,95354.34
2022-12-11T06:37:57.846Z,95357.69
2022-12-11T06:40:24.274Z,95340.00
2022-12-11T06:42:50.737Z,95350.84
2022-12-11T06:45:17.195Z,95343.47
2022-12-11T06:47:43.658Z,95343.97
2022-12-11T06:50:10.433Z,95341.47
2022-12-11T06:52:36.851Z,95347.09
2022-12-11T06:55:03.487Z,95334.41
2022-12-11T06:57:29.938Z,95333.94
2022-12-11T06:59:56.365Z,95335.44
2022-12-11T07:02:23.076Z,95343.91
2022-12-11T07:04:54.866Z,95339.75
2022-12-11T07:07:23.705Z,95342.22
2022-12-11T07:09:50.126Z,95350.16
2022-12-11T07:12:17.453Z,95355.81
2022-12-11T07:14:43.891Z,95355.34
2022-12-11T07:17:10.349Z,95356.03
2022-12-11T07:19:36.880Z,95368.28
2022-12-11T07:22:03.301Z,95369.59
2022-12-11T07:24:29.731Z,95366.53
2022-12-11T07:26:56.269Z,95366.75
2022-12-11T07:29:22.696Z,95372.19
2022-12-11T07:31:49.138Z,95369.13
2022-12-11T07:34:15.608Z,95369.94
2022-12-11T07:36:42.486Z,95367.56
2022-12-11T07:39:10.716Z,95370.63
2022-12-11T07:41:37.678Z,95372.44
2022-12-11T07:44:04.228Z,95369.81
2022-12-11T07:46:31.440Z,95361.06
2022-12-11T07:48:57.981Z,95359.94
2022-12-11T07:51:28.054Z,95351.75
2022-12-11T07:55:14.821Z,95348.56
2022-12-11T07:57:41.420Z,95353.81
2022-12-11T08:00:08.831Z,95341.78
2022-12-11T08:02:37.414Z,95346.47
2022-12-11T08:05:04.748Z,95350.69
2022-12-11T08:07:31.289Z,95339.53
2022-12-11T08:09:57.802Z,95344.41
2022-12-11T08:12:24.373Z,95338.84
2022-12-11T08:14:50.902Z,95334.94
2022-12-11T08:17:17.459Z,95340.59
2022-12-11T08:19:43.967Z,95329.59
2022-12-11T08:22:10.692Z,95338.00
2022-12-11T08:24:37.196Z,95330.56
2022-12-11T08:27:03.744Z,95335.25
2022-12-11T08:29:30.277Z,95331.56
2022-12-11T08:31:57.100Z,95331.78
2022-12-11T08:34:23.806Z,95329.41
2022-12-11T08:36:50.317Z,95336.72
2022-12-11T08:39:16.892Z,95337.59
2022-12-11T08:41:43.391Z,95342.75
2022-12-11T08:44:16.614Z,95341.25
2022-12-11T08:46:43.386Z,95323.94
2022-12-11T08:49:10.455Z,95313.09
2022-12-11T08:51:37.047Z,95312.72
2022-12-11T08:54:03.800Z,95315.69
2022-12-11T08:56:31.332Z,95311.97
2022-12-11T08:59:00.977Z,95320.97
2022-12-11T09:01:28.615Z,95329.59
2022-12-11T09:03:56.974Z,95327.34
2022-12-11T09:06:25.627Z,95318.06
2022-12-11T09:08:53.587Z,95318.06
2022-12-11T09:11:24.512Z,95307.19
2022-12-11T09:13:51.560Z,95310.03
2022-12-11T09:16:19.902Z,95294.88
2022-12-11T09:18:48.184Z,95286.69
2022-12-11T09:21:17.811Z,95289.63
2022-12-11T09:23:44.464Z,95292.78
2022-12-11T09:26:13.967Z,95289.63
2022-12-11T09:28:46.304Z,95288.66
2022-12-11T09:31:23.591Z,95286.03
2022-12-11T09:33:52.117Z,95279.28
2022-12-11T09:36:19.020Z,95289.53
2022-12-11T09:38:46.088Z,95280.38
2022-12-11T09:41:21.823Z,95291.38
2022-12-11T09:44:16.427Z,95291.16
2022-12-11T09:46:44.379Z,95291.03
2022-12-11T09:49:25.093Z,95275.22
2022-12-11T09:52:32.049Z,95275.75
2022-12-11T09:55:10.349Z,95289.28
2022-12-11T09:57:51.764Z,95281.47
2022-12-11T10:00:26.478Z,95284.19
2022-12-11T10:03:08.937Z,95274.69
2022-12-11T10:05:38.405Z,95275.81
2022-12-11T10:08:40.338Z,95272.97
2022-12-11T10:11:38.839Z,95269.47
2022-12-11T10:14:31.349Z,95266.66
2022-12-11T10:17:04.538Z,95274.91
2022-12-11T10:19:32.626Z,95264.91
2022-12-11T10:22:00.965Z,95258.16
2022-12-11T10:27:41.221Z,95250.97
2022-12-11T10:30:21.591Z,95245.53
2022-12-11T10:33:12.983Z,95238.75
2022-12-11T10:35:45.934Z,95226.34
2022-12-11T10:38:14.586Z,95231.91
2022-12-11T10:40:45.796Z,95223.28
2022-12-11T10:43:12.640Z,95227.31
2022-12-11T10:45:39.308Z,95230.69
2022-12-11T10:48:12.547Z,95231.25
2022-12-11T10:50:39.951Z,95228.50
2022-12-11T10:53:06.346Z,95224.25
2022-12-11T10:55:45.811Z,95225.78
2022-12-11T10:58:20.780Z,95211.41
2022-12-11T11:01:00.199Z,95217.84
2022-12-11T11:03:27.878Z,95225.03
2022-12-11T11:06:23.742Z,95227.44
2022-12-11T11:08:53.614Z,95220.22
2022-12-11T11:11:33.908Z,95224.69
2022-12-11T11:14:06.772Z,95226.44
2022-12-11T11:16:37.548Z,95226.13
2022-12-11T11:19:05.031Z,95218.94
2022-12-11T11:21:34.053Z,95213.69
2022-12-11T11:24:00.689Z,95222.66
2022-12-11T11:27:04.465Z,95213.50
2022-12-11T11:29:32.162Z,95210.28
2022-12-11T11:32:15.673Z,95208.97
2022-12-11T11:34:43.208Z,95203.31
2022-12-11T11:37:31.019Z,95202.75
2022-12-11T11:40:22.259Z,95201.78
2022-12-11T11:43:16.438Z,95206.09
2022-12-11T11:45:59.718Z,95203.38
2022-12-11T11:48:48.143Z,95201.50
2022-12-11T11:51:36.472Z,95214.63
2022-12-11T11:54:15.217Z,95208.72
2022-12-11T11:56:42.239Z,95207.81
2022-12-11T11:59:32.157Z,95202.63
2022-12-11T12:01:59.007Z,95213.63
2022-12-11T12:04:34.920Z,95213.47
2022-12-11T12:07:10.118Z,95211.97
2022-12-11T12:09:39.752Z,95216.53
2022-12-11T12:12:09.445Z,95222.63
2022-12-11T12:14:52.461Z,95230.44
2022-12-11T12:17:41.330Z,95237.63
2022-12-11T12:20:33.886Z,95243.78
2022-12-11T12:23:10.166Z,95236.25
2022-12-11T12:25:46.043Z,95242.34
2022-12-11T12:28:15.385Z,95248.22
2022-12-11T12:30:59.998Z,95243.78
2022-12-11T12:33:29.598Z,95240.94
2022-12-11T12:36:07.272Z,95243.81
2022-12-11T12:38:48.946Z,95238.78
2022-12-11T12:41:38.687Z,95241.97
2022-12-11T12:44:18.332Z,95249.13
2022-12-11T12:47:03.407Z,95249.13
2022-12-11T12:49:38.866Z,95255.38
2022-12-11T12:52:10.391Z,95255.72
2022-12-11T12:54:38.504Z,95250.31
2022-12-11T12:57:05.508Z,95258.56
2022-12-11T12:59:32.109Z,95267.81
2022-12-11T13:02:01.970Z,95263.91
2022-12-11T13:04:56.289Z,95267.72
2022-12-11T13:07:29.613Z,95263.81
2022-12-11T13:10:16.661Z,95266.31
2022-12-11T13:12:45.478Z,95267.31
2022-12-11T13:15:35.230Z,95260.78
2022-12-11T13:18:05.198Z,95267.56
2022-12-11T13:20:33.740Z,95267.09
2022-12-11T13:23:00.199Z,95263.72
2022-12-11T13:25:29.896Z,95260.66
2022-12-11T13:28:24.990Z,95262.41
2022-12-11T13:31:14.414Z,95269.13
2022-12-11T13:33:47.875Z,95272.50
2022-12-11T13:36:17.922Z,95274.19
2022-12-11T13:38:56.949Z,95288.13
2022-12-11T13:41:23.893Z,95288.19
2022-12-11T13:43:51.355Z,95292.28
2022-12-11T13:46:32.914Z,95287.69
2022-12-11T13:49:02.797Z,95297.66
2022-12-11T13:51:32.525Z,95312.72
2022-12-11T13:54:17.543Z,95311.19
2022-12-11T13:57:06.138Z,95317.13
2022-12-11T13:59:35.883Z,95315.63
2022-12-11T14:02:28.777Z,95317.41
2022-12-11T14:05:02.378Z,95310.81
2022-12-11T14:07:33.454Z,95319.00
2022-12-11T14:10:08.178Z,95314.66
2022-12-11T14:12:37.101Z,95316.44
2022-12-11T14:15:04.878Z,95318.22
2022-12-11T14:17:34.934Z,95325.69
2022-12-11T14:20:07.355Z,95322.81
2022-12-11T14:22:34.323Z,95325.56
2022-12-11T14:25:03.768Z,95327.59
2022-12-11T14:27:30.941Z,95330.97
2022-12-11T14:29:57.496Z,95335.06
2022-12-11T14:32:38.542Z,95319.16
2022-12-11T14:35:08.746Z,95323.00
2022-12-11T14:37:37.206Z,95322.47
2022-12-11T14:40:16.038Z,95331.66
2022-12-11T14:42:59.882Z,95338.06
2022-12-11T14:45:29.795Z,95338.75
2022-12-11T14:47:58.344Z,95342.28
2022-12-11T14:50:39.931Z,95340.72
2022-12-11T14:53:22.967Z,95345.06
2022-12-11T14:55:50.689Z,95342.28
2022-12-11T14:58:21.555Z,95338.34
2022-12-11T15:01:01.645Z,95348.59
2022-12-11T15:03:46.429Z,95358.06
2022-12-11T15:06:29.273Z,95350.34
2022-12-11T15:08:56.381Z,95349.91
2022-12-11T15:11:25.141Z,95349.31
2022-12-11T15:14:00.658Z,95354.69
2022-12-11T15:16:31.861Z,95360.06
2022-12-11T15:18:59.016Z,95372.38
2022-12-11T15:21:31.275Z,95378.78
2022-12-11T15:24:00.963Z,95373.13
2022-12-11T15:26:37.472Z,95385.19
2022-12-11T15:29:07.333Z,95384.91
2022-12-11T15:31:37.818Z,95385.19
2022-12-11T15:34:21.860Z,95388.25
2022-12-11T15:36:48.539Z,95392.88
2022-12-11T15:39:15.045Z,95385.41
2022-12-11T15:41:43.201Z,95381.34
2022-12-11T15:44:19.566Z,95383.56
2022-12-11T15:46:46.184Z,95387.69
2022-12-11T15:49:13.130Z,95376.41
2022-12-11T15:51:43.042Z,95387.69
2022-12-11T15:54:10.277Z,95396.16
2022-12-11T15:56:36.809Z,95396.69
2022-12-11T15:59:06.795Z,95395.44
2022-12-11T16:01:33.722Z,95414.16
2022-12-11T16:04:04.705Z,95411.56
2022-12-11T16:06:31.908Z,95416.25
2022-12-11T16:08:58.419Z,95419.06
2022-12-11T16:11:24.960Z,95426.78
2022-12-11T16:13:51.507Z,95435.97
2022-12-11T16:16:18.211Z,95449.28
2022-12-11T16:18:44.807Z,95437.03
2022-12-11T16:21:12.831Z,95441.13
2022-12-11T16:23:42.125Z,95434.22
2022-12-11T16:26:09.761Z,95448.06
2022-12-11T16:28:36.349Z,95456.81
2022-12-11T16:31:03.690Z,95459.13
2022-12-11T16:33:30.183Z,95460.66
2022-12-11T16:35:57.795Z,95469.13
2022-12-11T16:38:24.397Z,95472.00
2022-12-11T16:40:59.883Z,95468.47
2022-12-11T16:43:26.526Z,95482.06
2022-12-11T16:45:56.409Z,95467.19
2022-12-11T16:48:23.103Z,95484.06
2022-12-11T16:50:52.459Z,95496.13
2022-12-11T16:53:19.020Z,95500.72
2022-12-11T16:55:45.578Z,95500.47
2022-12-11T16:58:16.369Z,95498.94
2022-12-11T17:00:42.939Z,95506.59
2022-12-11T17:03:09.807Z,95508.66
2022-12-11T17:05:39.353Z,95519.88
2022-12-11T17:08:06.469Z,95525.25
2022-12-11T17:10:33.288Z,95537.00
2022-12-11T17:13:00.298Z,95545.53
2022-12-11T17:15:26.849Z,95552.72
2022-12-11T17:17:53.941Z,95550.56
2022-12-11T17:20:20.547Z,95547.59
2022-12-11T17:22:47.172Z,95548.88
2022-12-11T17:25:16.649Z,95560.06
2022-12-11T17:27:43.232Z,95563.97
2022-12-11T17:30:10.383Z,95561.53
2022-12-11T17:32:37.023Z,95579.53
2022-12-11T17:35:03.844Z,95580.25
2022-12-11T17:37:30.634Z,95586.28
2022-12-11T17:39:57.149Z,95595.97
2022-12-11T17:42:23.710Z,95583.19
2022-12-11T17:44:50.281Z,95595.13
2022-12-11T17:47:17.050Z,95589.25
2022-12-11T17:49:43.728Z,95587.38
2022-12-11T17:52:10.260Z,95597.97
2022-12-11T17:54:36.875Z,95605.34
2022-12-11T17:57:03.675Z,95608.13
2022-12-11T17:59:30.378Z,95608.13
2022-12-11T18:01:57.707Z,95601.94
2022-12-11T18:04:24.313Z,95600.47
2022-12-11T18:06:51.010Z,95613.53
2022-12-11T18:09:17.647Z,95614.63
2022-12-11T18:11:44.215Z,95609.53
2022-12-11T18:14:15.362Z,95606.09
2022-12-11T18:16:43.828Z,95610.53
2022-12-11T18:19:10.395Z,95610.94
2022-12-11T18:21:41.295Z,95613.56
2022-12-11T18:24:08.885Z,95612.34
2022-12-11T18:26:37.530Z,95612.13
2022-12-11T18:29:04.903Z,95615.22
2022-12-11T18:31:31.508Z,95604.53
2022-12-11T18:33:58.354Z,95612.25
2022-12-11T18:36:24.981Z,95614.78
2022-12-11T18:38:51.571Z,95611.47
2022-12-11T18:41:19.340Z,95613.22
2022-12-11T18:43:46.400Z,95623.19
2022-12-11T18:46:15.971Z,95634.41
2022-12-11T18:48:44.334Z,95636.75
2022-12-11T18:51:14.100Z,95632.72
2022-12-11T18:53:40.772Z,95630.56
2022-12-11T18:56:10.266Z,95634.69
2022-12-11T18:58:37.461Z,95636.75
2022-12-11T19:01:14.064Z,95637.53
2022-12-11T19:03:40.779Z,95635.50
2022-12-11T19:06:13.576Z,95633.47
2022-12-11T19:08:40.362Z,95632.16
2022-12-11T19:11:07.618Z,95644.13
2022-12-11T19:13:35.125Z,95643.13
2022-12-11T19:16:02.042Z,95636.09
2022-12-11T19:18:28.736Z,95639.19
2022-12-11T19:21:06.443Z,95642.50
2022-12-11T19:23:35.289Z,95638.97
2022-12-11T19:26:02.448Z,95651.94
2022-12-11T19:28:29.067Z,95651.38
2022-12-11T19:30:55.720Z,95660.72
2022-12-11T19:33:22.423Z,95662.69
2022-12-11T19:35:49.002Z,95658.84
2022-12-11T19:38:15.692Z,95669.72
2022-12-11T19:40:44.154Z,95670.22
2022-12-11T19:43:10.802Z,95668.25
2022-12-11T19:45:37.745Z,95669.25
2022-12-11T19:48:04.701Z,95673.31
2022-12-11T19:50:31.281Z,95669.25
2022-12-11T19:52:57.876Z,95683.97
2022-12-11T19:55:24.463Z,95687.44
2022-12-11T19:57:51.035Z,95698.25
2022-12-11T20:00:18.936Z,95687.03
2022-12-11T20:02:45.610Z,95685.91
2022-12-11T20:05:13.273Z,95675.00
2022-12-11T20:07:40.172Z,95684.53
2022-12-11T20:10:07.234Z,95699.44
2022-12-11T20:12:33.840Z,95697.22
2022-12-11T20:15:00.466Z,95700.72
2022-12-11T20:17:27.092Z,95692.88
2022-12-11T20:19:53.676Z,95695.28
2022-12-11T20:22:20.259Z,95690.19
2022-12-11T20:24:46.816Z,95694.44
2022-12-11T20:27:13.423Z,95691.34
2022-12-11T20:29:40.245Z,95700.88
2022-12-11T20:32:07.532Z,95698.28
2022-12-11T20:34:34.153Z,95709.69
2022-12-11T20:37:00.707Z,95732.78
2022-12-11T20:39:27.411Z,95726.53
2022-12-11T20:41:53.984Z,95732.84
2022-12-11T20:44:20.654Z,95733.22
2022-12-11T20:46:47.194Z,95737.38
2022-12-11T20:49:13.851Z,95735.25
2022-12-11T20:51:41.068Z,95727.34
2022-12-11T20:54:07.809Z,95736.66
2022-12-11T20:56:34.445Z,95739.09
2022-12-11T20:59:01.076Z,95746.50
2022-12-11T21:01:31.138Z,95754.63
2022-12-11T21:03:59.147Z,95764.66
2022-12-11T21:06:31.994Z,95761.41
2022-12-11T21:09:06.592Z,95763.03
2022-12-11T21:11:33.436Z,95763.72
2022-12-11T21:14:00.030Z,95771.72
2022-12-11T21:16:26.915Z,95775.56
2022-12-11T21:18:55.142Z,95768.63
2022-12-11T21:21:21.762Z,95769.19
2022-12-11T21:23:48.279Z,95780.34
2022-12-11T21:26:15.486Z,95774.56
2022-12-11T21:28:42.303Z,95768.69
2022-12-11T21:31:12.260Z,95778.81
2022-12-11T21:33:39.034Z,95778.31
2022-12-11T21:36:07.015Z,95773.56
2022-12-11T21:38:33.690Z,95785.13
2022-12-11T21:41:18.429Z,95783.88
2022-12-11T21:44:40.792Z,95779.72
2022-12-11T21:46:33.765Z,95776.53
2022-12-11T21:49:00.396Z,95781.16
2022-12-11T21:51:36.144Z,95790.25
2022-12-11T21:54:05.260Z,95785.53
2022-12-11T21:56:32.022Z,95788.69
2022-12-11T21:58:58.730Z,95790.50
2022-12-11T22:01:31.493Z,95795.25
2022-12-11T22:03:58.771Z,95790.13
2022-12-11T22:06:25.383Z,95790.84
2022-12-11T22:08:51.960Z,95798.50
2022-12-11T22:11:24.507Z,95799.38
2022-12-11T22:13:51.183Z,95800.94
2022-12-11T22:16:18.445Z,95795.09
2022-12-11T22:18:45.675Z,95789.75
2022-12-11T22:21:12.450Z,95796.47
2022-12-11T22:23:39.989Z,95803.25
2022-12-11T22:26:07.487Z,95811.78
2022-12-11T22:28:34.173Z,95811.38
2022-12-11T22:31:01.062Z,95800.63
2022-12-11T22:33:27.645Z,95802.63
2022-12-11T22:35:58.981Z,95803.44
2022-12-11T22:38:25.973Z,95809.03
2022-12-11T22:40:53.862Z,95812.44
2022-12-11T22:43:21.707Z,95820.31
2022-12-11T22:45:48.302Z,95819.97
2022-12-11T22:48:14.978Z,95825.47
2022-12-11T22:50:42.423Z,95806.69
2022-12-11T22:53:08.955Z,95804.63
2022-12-11T22:55:39.442Z,95815.47
2022-12-11T22:58:06.591Z,95833.00
2022-12-11T23:00:33.191Z,95818.16
2022-12-11T23:02:59.849Z,95828.75
2022-12-11T23:05:26.491Z,95831.44
2022-12-11T23:07:53.079Z,95834.16
2022-12-11T23:10:19.999Z,95828.97
2022-12-11T23:12:46.715Z,95842.34
2022-12-11T23:15:13.607Z,95841.06
2022-12-11T23:17:40.371Z,95832.22
2022-12-11T23:20:07.426Z,95833.94
2022-12-11T23:22:34.066Z,95844.75
2022-12-11T23:25:00.609Z,95846.44
2022-12-11T23:27:27.226Z,95858.88
2022-12-11T23:29:53.727Z,95864.28
2022-12-11T23:32:20.295Z,95865.25
2022-12-11T23:34:46.897Z,95877.06
2022-12-11T23:37:13.427Z,95892.28
2022-12-11T23:39:40.025Z,95901.44
2022-12-11T23:42:06.558Z,95901.44
2022-12-11T23:44:33.050Z,95898.19
2022-12-11T23:46:59.581Z,95904.72
2022-12-11T23:49:26.125Z,95907.97
2022-12-11T23:51:52.803Z,95921.50
2022-12-11T23:54:19.339Z,95924.13
2022-12-11T23:56:45.916Z,95925.69
2022-12-11T23:59:13.342Z,95938.25
